sensor_id;sensor_type;location;lat;lon;timestamp;P1;durP1;ratioP1;P2;durP2;ratioP2
44558;SDS011;30270;40.238;18.256;2022-12-07T00:01:33;21.40;;;10.68;;
44558;SDS011;30270;40.238;18.256;2022-12-07T00:04:03;22.48;;;9.45;;
44558;SDS011;30270;40.238;18.256;2022-12-07T00:09:00;18.92;;;9.00;;
44558;SDS011;30270;40.238;18.256;2022-12-07T00:11:28;13.95;;;7.30;;
44558;SDS011;30270;40.238;18.256;2022-12-07T00:14:00;25.48;;;9.50;;
44558;SDS011;30270;40.238;18.256;2022-12-07T00:16:30;13.15;;;8.35;;
44558;SDS011;30270;40.238;18.256;2022-12-07T00:19:00;23.52;;;9.25;;
44558;SDS011;30270;40.238;18.256;2022-12-07T00:21:29;13.90;;;8.32;;
44558;SDS011;30270;40.238;18.256;2022-12-07T00:23:58;20.38;;;7.97;;
44558;SDS011;30270;40.238;18.256;2022-12-07T00:26:28;22.33;;;8.13;;
44558;SDS011;30270;40.238;18.256;2022-12-07T00:29:00;11.15;;;7.53;;
44558;SDS011;30270;40.238;18.256;2022-12-07T00:31:35;20.90;;;8.43;;
44558;SDS011;30270;40.238;18.256;2022-12-07T00:34:05;17.13;;;7.88;;
44558;SDS011;30270;40.238;18.256;2022-12-07T00:36:34;18.95;;;9.27;;
44558;SDS011;30270;40.238;18.256;2022-12-07T00:39:02;16.45;;;8.80;;
44558;SDS011;30270;40.238;18.256;2022-12-07T00:41:30;12.95;;;7.47;;
44558;SDS011;30270;40.238;18.256;2022-12-07T00:43:59;20.58;;;8.38;;
44558;SDS011;30270;40.238;18.256;2022-12-07T00:46:26;15.82;;;9.00;;
44558;SDS011;30270;40.238;18.256;2022-12-07T00:48:54;11.65;;;7.35;;
44558;SDS011;30270;40.238;18.256;2022-12-07T00:51:23;17.42;;;7.75;;
44558;SDS011;30270;40.238;18.256;2022-12-07T00:53:51;9.65;;;6.63;;
44558;SDS011;30270;40.238;18.256;2022-12-07T00:56:26;19.40;;;7.15;;
44558;SDS011;30270;40.238;18.256;2022-12-07T00:58:56;19.73;;;8.70;;
44558;SDS011;30270;40.238;18.256;2022-12-07T01:01:27;14.82;;;8.23;;
44558;SDS011;30270;40.238;18.256;2022-12-07T01:03:56;17.65;;;8.75;;
44558;SDS011;30270;40.238;18.256;2022-12-07T01:06:24;18.42;;;8.13;;
44558;SDS011;30270;40.238;18.256;2022-12-07T01:08:52;15.30;;;7.47;;
44558;SDS011;30270;40.238;18.256;2022-12-07T01:11:21;14.23;;;7.80;;
44558;SDS011;30270;40.238;18.256;2022-12-07T01:13:51;16.25;;;9.02;;
44558;SDS011;30270;40.238;18.256;2022-12-07T01:16:20;17.23;;;8.05;;
44558;SDS011;30270;40.238;18.256;2022-12-07T01:18:50;16.88;;;8.18;;
44558;SDS011;30270;40.238;18.256;2022-12-07T01:21:43;23.33;;;9.35;;
44558;SDS011;30270;40.238;18.256;2022-12-07T01:24:08;23.98;;;8.15;;
44558;SDS011;30270;40.238;18.256;2022-12-07T01:26:37;14.55;;;9.23;;
44558;SDS011;30270;40.238;18.256;2022-12-07T01:29:05;17.67;;;8.35;;
44558;SDS011;30270;40.238;18.256;2022-12-07T01:31:32;19.60;;;7.28;;
44558;SDS011;30270;40.238;18.256;2022-12-07T01:34:00;13.50;;;6.88;;
44558;SDS011;30270;40.238;18.256;2022-12-07T01:36:29;15.25;;;7.03;;
44558;SDS011;30270;40.238;18.256;2022-12-07T01:39:03;19.23;;;8.98;;
44558;SDS011;30270;40.238;18.256;2022-12-07T01:41:34;13.02;;;8.60;;
44558;SDS011;30270;40.238;18.256;2022-12-07T01:46:47;12.73;;;6.47;;
44558;SDS011;30270;40.238;18.256;2022-12-07T01:49:30;13.20;;;7.70;;
44558;SDS011;30270;40.238;18.256;2022-12-07T01:54:44;15.50;;;8.10;;
44558;SDS011;30270;40.238;18.256;2022-12-07T01:57:14;19.05;;;6.60;;
44558;SDS011;30270;40.238;18.256;2022-12-07T01:59:44;12.63;;;6.90;;
44558;SDS011;30270;40.238;18.256;2022-12-07T02:02:19;12.10;;;6.88;;
44558;SDS011;30270;40.238;18.256;2022-12-07T02:04:53;16.17;;;7.22;;
44558;SDS011;30270;40.238;18.256;2022-12-07T02:07:22;13.95;;;6.75;;
44558;SDS011;30270;40.238;18.256;2022-12-07T02:09:50;12.63;;;7.15;;
44558;SDS011;30270;40.238;18.256;2022-12-07T02:12:18;22.00;;;7.75;;
44558;SDS011;30270;40.238;18.256;2022-12-07T02:14:47;18.77;;;7.50;;
44558;SDS011;30270;40.238;18.256;2022-12-07T02:22:58;11.20;;;5.93;;
44558;SDS011;30270;40.238;18.256;2022-12-07T02:29:23;18.85;;;7.68;;
44558;SDS011;30270;40.238;18.256;2022-12-07T02:32:03;11.85;;;5.18;;
44558;SDS011;30270;40.238;18.256;2022-12-07T02:42:36;10.27;;;5.38;;
44558;SDS011;30270;40.238;18.256;2022-12-07T02:45:11;13.52;;;5.13;;
44558;SDS011;30270;40.238;18.256;2022-12-07T02:47:42;15.32;;;7.90;;
44558;SDS011;30270;40.238;18.256;2022-12-07T02:50:11;14.85;;;6.53;;
44558;SDS011;30270;40.238;18.256;2022-12-07T02:52:38;11.57;;;5.22;;
44558;SDS011;30270;40.238;18.256;2022-12-07T02:55:06;17.23;;;4.88;;
44558;SDS011;30270;40.238;18.256;2022-12-07T03:00:30;13.70;;;4.78;;
44558;SDS011;30270;40.238;18.256;2022-12-07T03:03:09;14.32;;;5.88;;
44558;SDS011;30270;40.238;18.256;2022-12-07T03:08:46;11.38;;;5.57;;
44558;SDS011;30270;40.238;18.256;2022-12-07T03:11:41;10.52;;;6.00;;
44558;SDS011;30270;40.238;18.256;2022-12-07T03:14:29;16.10;;;6.07;;
44558;SDS011;30270;40.238;18.256;2022-12-07T03:17:10;10.05;;;5.57;;
44558;SDS011;30270;40.238;18.256;2022-12-07T03:19:43;13.38;;;5.43;;
44558;SDS011;30270;40.238;18.256;2022-12-07T03:22:13;17.30;;;6.20;;
44558;SDS011;30270;40.238;18.256;2022-12-07T03:24:46;12.98;;;5.20;;
44558;SDS011;30270;40.238;18.256;2022-12-07T03:30:12;12.55;;;5.22;;
44558;SDS011;30270;40.238;18.256;2022-12-07T03:32:50;14.15;;;4.53;;
44558;SDS011;30270;40.238;18.256;2022-12-07T03:35:27;13.35;;;5.20;;
44558;SDS011;30270;40.238;18.256;2022-12-07T03:38:10;11.63;;;4.15;;
44558;SDS011;30270;40.238;18.256;2022-12-07T03:40:48;15.25;;;5.07;;
44558;SDS011;30270;40.238;18.256;2022-12-07T03:43:22;20.38;;;4.60;;
44558;SDS011;30270;40.238;18.256;2022-12-07T03:46:00;11.55;;;5.38;;
44558;SDS011;30270;40.238;18.256;2022-12-07T03:49:11;11.02;;;4.72;;
44558;SDS011;30270;40.238;18.256;2022-12-07T04:00:21;11.95;;;5.50;;
44558;SDS011;30270;40.238;18.256;2022-12-07T04:02:51;20.73;;;4.95;;
44558;SDS011;30270;40.238;18.256;2022-12-07T04:05:19;8.93;;;4.05;;
44558;SDS011;30270;40.238;18.256;2022-12-07T04:07:47;13.20;;;5.22;;
44558;SDS011;30270;40.238;18.256;2022-12-07T04:10:15;8.38;;;3.83;;
44558;SDS011;30270;40.238;18.256;2022-12-07T04:12:43;13.48;;;4.40;;
44558;SDS011;30270;40.238;18.256;2022-12-07T04:15:10;11.88;;;4.05;;
44558;SDS011;30270;40.238;18.256;2022-12-07T04:17:38;11.20;;;5.60;;
44558;SDS011;30270;40.238;18.256;2022-12-07T04:20:06;16.02;;;4.30;;
44558;SDS011;30270;40.238;18.256;2022-12-07T04:22:35;12.70;;;5.13;;
44558;SDS011;30270;40.238;18.256;2022-12-07T04:25:03;12.57;;;4.72;;
44558;SDS011;30270;40.238;18.256;2022-12-07T04:27:31;7.10;;;4.03;;
44558;SDS011;30270;40.238;18.256;2022-12-07T04:29:58;12.95;;;5.10;;
44558;SDS011;30270;40.238;18.256;2022-12-07T04:32:26;14.00;;;3.55;;
44558;SDS011;30270;40.238;18.256;2022-12-07T04:34:53;9.13;;;4.05;;
44558;SDS011;30270;40.238;18.256;2022-12-07T04:37:22;16.58;;;4.38;;
44558;SDS011;30270;40.238;18.256;2022-12-07T04:39:49;11.85;;;4.93;;
44558;SDS011;30270;40.238;18.256;2022-12-07T04:42:17;14.48;;;6.68;;
44558;SDS011;30270;40.238;18.256;2022-12-07T04:44:45;18.27;;;6.35;;
44558;SDS011;30270;40.238;18.256;2022-12-07T04:47:12;13.98;;;4.93;;
44558;SDS011;30270;40.238;18.256;2022-12-07T04:49:40;10.57;;;4.30;;
44558;SDS011;30270;40.238;18.256;2022-12-07T04:52:07;20.27;;;5.00;;
44558;SDS011;30270;40.238;18.256;2022-12-07T04:54:35;12.55;;;5.18;;
44558;SDS011;30270;40.238;18.256;2022-12-07T04:57:06;11.00;;;4.35;;
44558;SDS011;30270;40.238;18.256;2022-12-07T04:59:33;13.98;;;5.57;;
44558;SDS011;30270;40.238;18.256;2022-12-07T05:02:01;14.38;;;5.38;;
44558;SDS011;30270;40.238;18.256;2022-12-07T05:04:28;14.20;;;4.70;;
44558;SDS011;30270;40.238;18.256;2022-12-07T05:06:56;10.38;;;4.50;;
44558;SDS011;30270;40.238;18.256;2022-12-07T05:09:23;10.63;;;4.32;;
44558;SDS011;30270;40.238;18.256;2022-12-07T05:11:51;7.13;;;4.05;;
44558;SDS011;30270;40.238;18.256;2022-12-07T05:14:19;19.55;;;4.63;;
44558;SDS011;30270;40.238;18.256;2022-12-07T05:16:48;10.07;;;4.53;;
44558;SDS011;30270;40.238;18.256;2022-12-07T05:19:17;14.48;;;3.92;;
44558;SDS011;30270;40.238;18.256;2022-12-07T05:21:45;11.90;;;4.82;;
44558;SDS011;30270;40.238;18.256;2022-12-07T05:24:14;6.13;;;4.32;;
44558;SDS011;30270;40.238;18.256;2022-12-07T05:26:42;8.02;;;3.55;;
44558;SDS011;30270;40.238;18.256;2022-12-07T05:29:12;12.40;;;4.13;;
44558;SDS011;30270;40.238;18.256;2022-12-07T05:31:41;8.27;;;3.58;;
44558;SDS011;30270;40.238;18.256;2022-12-07T05:34:09;7.82;;;3.58;;
44558;SDS011;30270;40.238;18.256;2022-12-07T05:36:37;13.65;;;4.75;;
44558;SDS011;30270;40.238;18.256;2022-12-07T05:39:05;9.80;;;3.90;;
44558;SDS011;30270;40.238;18.256;2022-12-07T05:41:33;12.57;;;3.80;;
44558;SDS011;30270;40.238;18.256;2022-12-07T05:44:19;8.77;;;3.28;;
44558;SDS011;30270;40.238;18.256;2022-12-07T05:46:47;7.75;;;4.00;;
44558;SDS011;30270;40.238;18.256;2022-12-07T05:49:14;14.77;;;4.43;;
44558;SDS011;30270;40.238;18.256;2022-12-07T05:51:42;11.10;;;4.45;;
44558;SDS011;30270;40.238;18.256;2022-12-07T05:54:09;10.00;;;4.20;;
44558;SDS011;30270;40.238;18.256;2022-12-07T05:56:37;8.23;;;4.38;;
44558;SDS011;30270;40.238;18.256;2022-12-07T05:59:05;12.25;;;5.65;;
44558;SDS011;30270;40.238;18.256;2022-12-07T06:01:51;8.65;;;4.07;;
44558;SDS011;30270;40.238;18.256;2022-12-07T06:04:21;9.10;;;3.58;;
44558;SDS011;30270;40.238;18.256;2022-12-07T06:06:49;11.60;;;3.97;;
44558;SDS011;30270;40.238;18.256;2022-12-07T06:09:18;13.40;;;5.75;;
44558;SDS011;30270;40.238;18.256;2022-12-07T06:11:46;13.30;;;4.53;;
44558;SDS011;30270;40.238;18.256;2022-12-07T06:14:33;16.67;;;3.33;;
44558;SDS011;30270;40.238;18.256;2022-12-07T06:17:01;10.52;;;3.78;;
44558;SDS011;30270;40.238;18.256;2022-12-07T06:19:28;16.45;;;5.10;;
44558;SDS011;30270;40.238;18.256;2022-12-07T06:21:56;8.73;;;4.10;;
44558;SDS011;30270;40.238;18.256;2022-12-07T06:24:24;10.32;;;4.18;;
44558;SDS011;30270;40.238;18.256;2022-12-07T06:26:52;8.63;;;3.42;;
44558;SDS011;30270;40.238;18.256;2022-12-07T06:29:20;10.93;;;3.88;;
44558;SDS011;30270;40.238;18.256;2022-12-07T06:31:51;15.55;;;7.78;;
44558;SDS011;30270;40.238;18.256;2022-12-07T06:34:20;18.23;;;12.85;;
44558;SDS011;30270;40.238;18.256;2022-12-07T06:36:52;31.35;;;9.73;;
44558;SDS011;30270;40.238;18.256;2022-12-07T06:39:22;14.13;;;7.45;;
44558;SDS011;30270;40.238;18.256;2022-12-07T06:41:54;17.77;;;9.95;;
44558;SDS011;30270;40.238;18.256;2022-12-07T06:44:22;11.75;;;7.15;;
44558;SDS011;30270;40.238;18.256;2022-12-07T06:46:51;14.52;;;5.10;;
44558;SDS011;30270;40.238;18.256;2022-12-07T06:49:24;10.30;;;4.75;;
44558;SDS011;30270;40.238;18.256;2022-12-07T06:51:51;7.80;;;5.28;;
44558;SDS011;30270;40.238;18.256;2022-12-07T06:54:19;6.93;;;3.83;;
44558;SDS011;30270;40.238;18.256;2022-12-07T06:56:47;6.15;;;3.30;;
44558;SDS011;30270;40.238;18.256;2022-12-07T06:59:17;7.45;;;4.13;;
44558;SDS011;30270;40.238;18.256;2022-12-07T07:01:45;9.40;;;3.88;;
44558;SDS011;30270;40.238;18.256;2022-12-07T07:04:12;9.48;;;5.20;;
44558;SDS011;30270;40.238;18.256;2022-12-07T07:06:40;18.38;;;6.60;;
44558;SDS011;30270;40.238;18.256;2022-12-07T07:09:08;13.40;;;4.65;;
44558;SDS011;30270;40.238;18.256;2022-12-07T07:11:36;10.15;;;3.42;;
44558;SDS011;30270;40.238;18.256;2022-12-07T07:14:03;10.15;;;4.15;;
44558;SDS011;30270;40.238;18.256;2022-12-07T07:16:31;6.97;;;3.28;;
44558;SDS011;30270;40.238;18.256;2022-12-07T07:18:59;6.18;;;2.85;;
44558;SDS011;30270;40.238;18.256;2022-12-07T07:21:27;9.27;;;3.13;;
44558;SDS011;30270;40.238;18.256;2022-12-07T07:23:55;10.13;;;5.45;;
44558;SDS011;30270;40.238;18.256;2022-12-07T07:26:23;11.07;;;4.22;;
44558;SDS011;30270;40.238;18.256;2022-12-07T07:28:51;10.80;;;3.50;;
44558;SDS011;30270;40.238;18.256;2022-12-07T07:31:19;8.88;;;4.35;;
44558;SDS011;30270;40.238;18.256;2022-12-07T07:33:46;9.70;;;3.83;;
44558;SDS011;30270;40.238;18.256;2022-12-07T07:36:14;13.55;;;4.38;;
44558;SDS011;30270;40.238;18.256;2022-12-07T07:38:42;11.68;;;4.53;;
44558;SDS011;30270;40.238;18.256;2022-12-07T07:41:09;8.82;;;2.90;;
44558;SDS011;30270;40.238;18.256;2022-12-07T07:43:37;9.10;;;3.88;;
44558;SDS011;30270;40.238;18.256;2022-12-07T07:46:05;7.63;;;2.97;;
44558;SDS011;30270;40.238;18.256;2022-12-07T07:48:33;5.28;;;2.20;;
44558;SDS011;30270;40.238;18.256;2022-12-07T07:51:00;12.02;;;4.50;;
44558;SDS011;30270;40.238;18.256;2022-12-07T07:53:33;11.65;;;4.50;;
44558;SDS011;30270;40.238;18.256;2022-12-07T07:56:01;5.82;;;2.90;;
44558;SDS011;30270;40.238;18.256;2022-12-07T07:58:28;8.48;;;3.50;;
44558;SDS011;30270;40.238;18.256;2022-12-07T08:00:56;10.95;;;3.45;;
44558;SDS011;30270;40.238;18.256;2022-12-07T08:03:24;6.70;;;3.65;;
44558;SDS011;30270;40.238;18.256;2022-12-07T08:05:51;10.02;;;3.15;;
44558;SDS011;30270;40.238;18.256;2022-12-07T08:08:19;7.35;;;3.03;;
44558;SDS011;30270;40.238;18.256;2022-12-07T08:10:46;7.88;;;3.80;;
44558;SDS011;30270;40.238;18.256;2022-12-07T08:13:17;10.75;;;3.42;;
44558;SDS011;30270;40.238;18.256;2022-12-07T08:15:45;7.93;;;2.95;;
44558;SDS011;30270;40.238;18.256;2022-12-07T08:18:15;13.15;;;3.70;;
44558;SDS011;30270;40.238;18.256;2022-12-07T08:20:42;7.43;;;3.70;;
44558;SDS011;30270;40.238;18.256;2022-12-07T08:23:10;9.52;;;4.15;;
44558;SDS011;30270;40.238;18.256;2022-12-07T08:25:38;14.23;;;3.97;;
44558;SDS011;30270;40.238;18.256;2022-12-07T08:28:06;13.00;;;3.38;;
44558;SDS011;30270;40.238;18.256;2022-12-07T08:30:34;10.07;;;2.70;;
44558;SDS011;30270;40.238;18.256;2022-12-07T08:33:02;8.65;;;3.85;;
44558;SDS011;30270;40.238;18.256;2022-12-07T08:35:29;9.20;;;3.38;;
44558;SDS011;30270;40.238;18.256;2022-12-07T08:37:59;13.05;;;3.78;;
44558;SDS011;30270;40.238;18.256;2022-12-07T08:40:28;10.93;;;3.45;;
44558;SDS011;30270;40.238;18.256;2022-12-07T08:42:56;9.30;;;3.78;;
44558;SDS011;30270;40.238;18.256;2022-12-07T08:45:24;8.68;;;2.88;;
44558;SDS011;30270;40.238;18.256;2022-12-07T08:50:23;20.58;;;4.95;;
44558;SDS011;30270;40.238;18.256;2022-12-07T08:52:53;7.85;;;3.67;;
44558;SDS011;30270;40.238;18.256;2022-12-07T08:55:23;14.07;;;3.03;;
44558;SDS011;30270;40.238;18.256;2022-12-07T08:57:51;8.00;;;2.95;;
44558;SDS011;30270;40.238;18.256;2022-12-07T09:00:19;11.07;;;3.90;;
44558;SDS011;30270;40.238;18.256;2022-12-07T09:02:47;9.48;;;3.47;;
44558;SDS011;30270;40.238;18.256;2022-12-07T09:05:14;10.60;;;3.55;;
44558;SDS011;30270;40.238;18.256;2022-12-07T09:07:43;9.80;;;3.70;;
44558;SDS011;30270;40.238;18.256;2022-12-07T09:10:13;12.10;;;3.97;;
44558;SDS011;30270;40.238;18.256;2022-12-07T09:12:40;7.25;;;3.40;;
44558;SDS011;30270;40.238;18.256;2022-12-07T09:15:08;11.40;;;3.78;;
44558;SDS011;30270;40.238;18.256;2022-12-07T09:17:36;13.30;;;3.13;;
44558;SDS011;30270;40.238;18.256;2022-12-07T09:20:05;18.20;;;3.83;;
44558;SDS011;30270;40.238;18.256;2022-12-07T09:22:33;8.60;;;2.83;;
44558;SDS011;30270;40.238;18.256;2022-12-07T09:25:01;7.75;;;2.58;;
44558;SDS011;30270;40.238;18.256;2022-12-07T09:27:30;12.10;;;3.17;;
44558;SDS011;30270;40.238;18.256;2022-12-07T09:29:58;9.85;;;3.67;;
44558;SDS011;30270;40.238;18.256;2022-12-07T09:32:25;12.30;;;2.55;;
44558;SDS011;30270;40.238;18.256;2022-12-07T09:34:53;5.18;;;2.65;;
44558;SDS011;30270;40.238;18.256;2022-12-07T09:37:20;11.02;;;3.42;;
44558;SDS011;30270;40.238;18.256;2022-12-07T09:39:48;7.82;;;2.45;;
44558;SDS011;30270;40.238;18.256;2022-12-07T09:42:29;10.43;;;3.15;;
44558;SDS011;30270;40.238;18.256;2022-12-07T09:45:04;6.85;;;2.80;;
44558;SDS011;30270;40.238;18.256;2022-12-07T09:47:34;5.93;;;3.15;;
44558;SDS011;30270;40.238;18.256;2022-12-07T09:50:07;9.57;;;2.75;;
44558;SDS011;30270;40.238;18.256;2022-12-07T09:52:41;9.30;;;2.88;;
44558;SDS011;30270;40.238;18.256;2022-12-07T09:55:11;7.28;;;3.03;;
44558;SDS011;30270;40.238;18.256;2022-12-07T09:57:41;9.52;;;4.03;;
44558;SDS011;30270;40.238;18.256;2022-12-07T10:00:13;9.13;;;4.53;;
44558;SDS011;30270;40.238;18.256;2022-12-07T10:02:59;13.75;;;4.28;;
44558;SDS011;30270;40.238;18.256;2022-12-07T10:05:39;10.55;;;3.83;;
44558;SDS011;30270;40.238;18.256;2022-12-07T10:08:12;8.40;;;3.85;;
44558;SDS011;30270;40.238;18.256;2022-12-07T10:10:42;14.30;;;5.85;;
44558;SDS011;30270;40.238;18.256;2022-12-07T10:13:12;10.35;;;3.60;;
44558;SDS011;30270;40.238;18.256;2022-12-07T10:24:05;10.32;;;4.95;;
44558;SDS011;30270;40.238;18.256;2022-12-07T10:32:02;10.93;;;3.58;;
44558;SDS011;30270;40.238;18.256;2022-12-07T10:34:36;7.13;;;3.33;;
44558;SDS011;30270;40.238;18.256;2022-12-07T10:45:06;8.90;;;2.75;;
44558;SDS011;30270;40.238;18.256;2022-12-07T10:47:47;7.50;;;2.65;;
44558;SDS011;30270;40.238;18.256;2022-12-07T10:56:42;8.65;;;3.20;;
44558;SDS011;30270;40.238;18.256;2022-12-07T11:00:17;11.00;;;3.70;;
44558;SDS011;30270;40.238;18.256;2022-12-07T11:13:18;6.03;;;2.85;;
44558;SDS011;30270;40.238;18.256;2022-12-07T11:16:00;7.30;;;3.42;;
44558;SDS011;30270;40.238;18.256;2022-12-07T11:32:53;11.00;;;3.13;;
44558;SDS011;30270;40.238;18.256;2022-12-07T11:41:08;9.60;;;4.15;;
44558;SDS011;30270;40.238;18.256;2022-12-07T11:46:55;7.38;;;2.88;;
44558;SDS011;30270;40.238;18.256;2022-12-07T11:49:51;10.52;;;4.10;;
44558;SDS011;30270;40.238;18.256;2022-12-07T11:52:26;15.77;;;5.00;;
44558;SDS011;30270;40.238;18.256;2022-12-07T11:54:59;15.07;;;4.57;;
44558;SDS011;30270;40.238;18.256;2022-12-07T11:57:35;13.40;;;4.53;;
44558;SDS011;30270;40.238;18.256;2022-12-07T12:00:16;11.70;;;4.53;;
44558;SDS011;30270;40.238;18.256;2022-12-07T12:05:28;18.52;;;5.18;;
44558;SDS011;30270;40.238;18.256;2022-12-07T12:14:11;9.10;;;3.92;;
44558;SDS011;30270;40.238;18.256;2022-12-07T12:22:28;7.13;;;3.75;;
44558;SDS011;30270;40.238;18.256;2022-12-07T12:25:06;10.57;;;3.85;;
44558;SDS011;30270;40.238;18.256;2022-12-07T12:27:44;6.57;;;2.97;;
44558;SDS011;30270;40.238;18.256;2022-12-07T12:30:29;7.78;;;2.85;;
44558;SDS011;30270;40.238;18.256;2022-12-07T12:33:42;8.73;;;3.58;;
44558;SDS011;30270;40.238;18.256;2022-12-07T12:39:14;9.40;;;5.07;;
44558;SDS011;30270;40.238;18.256;2022-12-07T13:02:22;25.00;;;5.15;;
44558;SDS011;30270;40.238;18.256;2022-12-07T13:07:47;14.07;;;7.70;;
44558;SDS011;30270;40.238;18.256;2022-12-07T13:12:57;11.80;;;4.65;;
44558;SDS011;30270;40.238;18.256;2022-12-07T13:15:36;8.75;;;4.22;;
44558;SDS011;30270;40.238;18.256;2022-12-07T13:18:24;9.13;;;3.55;;
44558;SDS011;30270;40.238;18.256;2022-12-07T13:20:59;11.75;;;4.57;;
44558;SDS011;30270;40.238;18.256;2022-12-07T13:31:46;8.98;;;4.18;;
44558;SDS011;30270;40.238;18.256;2022-12-07T13:34:33;7.70;;;4.63;;
44558;SDS011;30270;40.238;18.256;2022-12-07T13:39:57;14.18;;;5.55;;
44558;SDS011;30270;40.238;18.256;2022-12-07T13:42:30;9.20;;;4.00;;
44558;SDS011;30270;40.238;18.256;2022-12-07T13:45:13;9.20;;;4.32;;
44558;SDS011;30270;40.238;18.256;2022-12-07T13:47:51;8.07;;;3.13;;
44558;SDS011;30270;40.238;18.256;2022-12-07T13:50:26;6.60;;;3.78;;
44558;SDS011;30270;40.238;18.256;2022-12-07T13:52:59;11.52;;;5.45;;
44558;SDS011;30270;40.238;18.256;2022-12-07T13:55:28;12.68;;;6.18;;
44558;SDS011;30270;40.238;18.256;2022-12-07T13:57:56;9.45;;;5.10;;
44558;SDS011;30270;40.238;18.256;2022-12-07T14:00:25;7.95;;;3.92;;
44558;SDS011;30270;40.238;18.256;2022-12-07T14:02:59;7.30;;;3.80;;
44558;SDS011;30270;40.238;18.256;2022-12-07T14:05:29;11.57;;;4.70;;
44558;SDS011;30270;40.238;18.256;2022-12-07T14:08:05;9.07;;;5.20;;
44558;SDS011;30270;40.238;18.256;2022-12-07T14:15:58;13.18;;;4.95;;
44558;SDS011;30270;40.238;18.256;2022-12-07T14:21:30;9.38;;;5.47;;
44558;SDS011;30270;40.238;18.256;2022-12-07T14:26:38;13.18;;;5.78;;
44558;SDS011;30270;40.238;18.256;2022-12-07T14:31:52;15.95;;;8.05;;
44558;SDS011;30270;40.238;18.256;2022-12-07T14:34:21;12.15;;;7.25;;
44558;SDS011;30270;40.238;18.256;2022-12-07T14:36:50;9.93;;;4.47;;
44558;SDS011;30270;40.238;18.256;2022-12-07T14:39:18;13.40;;;6.15;;
44558;SDS011;30270;40.238;18.256;2022-12-07T14:41:45;11.70;;;6.50;;
44558;SDS011;30270;40.238;18.256;2022-12-07T14:44:19;14.48;;;6.38;;
44558;SDS011;30270;40.238;18.256;2022-12-07T14:46:50;11.38;;;6.63;;
44558;SDS011;30270;40.238;18.256;2022-12-07T14:49:38;14.48;;;7.80;;
44558;SDS011;30270;40.238;18.256;2022-12-07T14:52:06;16.83;;;7.53;;
44558;SDS011;30270;40.238;18.256;2022-12-07T14:55:33;14.98;;;8.32;;
44558;SDS011;30270;40.238;18.256;2022-12-07T14:58:01;11.80;;;5.65;;
44558;SDS011;30270;40.238;18.256;2022-12-07T15:00:28;14.50;;;6.68;;
44558;SDS011;30270;40.238;18.256;2022-12-07T15:02:56;11.32;;;5.88;;
44558;SDS011;30270;40.238;18.256;2022-12-07T15:05:24;13.10;;;7.55;;
44558;SDS011;30270;40.238;18.256;2022-12-07T15:07:52;17.15;;;8.23;;
44558;SDS011;30270;40.238;18.256;2022-12-07T15:10:26;11.73;;;5.38;;
44558;SDS011;30270;40.238;18.256;2022-12-07T15:13:00;8.80;;;5.80;;
44558;SDS011;30270;40.238;18.256;2022-12-07T15:15:48;12.57;;;5.55;;
44558;SDS011;30270;40.238;18.256;2022-12-07T15:18:17;27.17;;;8.55;;
44558;SDS011;30270;40.238;18.256;2022-12-07T15:20:46;17.10;;;7.50;;
44558;SDS011;30270;40.238;18.256;2022-12-07T15:23:13;60.58;;;13.77;;
44558;SDS011;30270;40.238;18.256;2022-12-07T15:25:43;11.63;;;5.20;;
44558;SDS011;30270;40.238;18.256;2022-12-07T15:28:12;11.65;;;4.28;;
44558;SDS011;30270;40.238;18.256;2022-12-07T15:30:41;8.70;;;4.50;;
44558;SDS011;30270;40.238;18.256;2022-12-07T15:33:10;12.38;;;5.10;;
44558;SDS011;30270;40.238;18.256;2022-12-07T15:35:42;12.32;;;6.50;;
44558;SDS011;30270;40.238;18.256;2022-12-07T15:38:11;11.77;;;5.75;;
44558;SDS011;30270;40.238;18.256;2022-12-07T15:40:39;10.85;;;6.32;;
44558;SDS011;30270;40.238;18.256;2022-12-07T15:43:09;10.93;;;6.28;;
44558;SDS011;30270;40.238;18.256;2022-12-07T15:45:57;20.52;;;8.23;;
44558;SDS011;30270;40.238;18.256;2022-12-07T15:48:26;15.35;;;7.30;;
44558;SDS011;30270;40.238;18.256;2022-12-07T15:51:01;11.55;;;7.28;;
44558;SDS011;30270;40.238;18.256;2022-12-07T15:53:33;12.70;;;6.10;;
44558;SDS011;30270;40.238;18.256;2022-12-07T15:56:05;11.38;;;7.13;;
44558;SDS011;30270;40.238;18.256;2022-12-07T15:58:34;12.38;;;6.30;;
44558;SDS011;30270;40.238;18.256;2022-12-07T16:01:09;11.02;;;7.65;;
44558;SDS011;30270;40.238;18.256;2022-12-07T16:03:44;14.50;;;7.45;;
44558;SDS011;30270;40.238;18.256;2022-12-07T16:06:17;25.60;;;15.10;;
44558;SDS011;30270;40.238;18.256;2022-12-07T16:08:45;15.77;;;9.70;;
44558;SDS011;30270;40.238;18.256;2022-12-07T16:11:14;16.40;;;7.85;;
44558;SDS011;30270;40.238;18.256;2022-12-07T16:13:41;21.42;;;9.85;;
44558;SDS011;30270;40.238;18.256;2022-12-07T16:16:10;21.30;;;12.40;;
44558;SDS011;30270;40.238;18.256;2022-12-07T16:18:41;23.65;;;11.63;;
44558;SDS011;30270;40.238;18.256;2022-12-07T16:21:09;23.15;;;12.82;;
44558;SDS011;30270;40.238;18.256;2022-12-07T16:23:38;16.08;;;9.35;;
44558;SDS011;30270;40.238;18.256;2022-12-07T16:26:07;16.52;;;9.80;;
44558;SDS011;30270;40.238;18.256;2022-12-07T16:28:37;15.63;;;9.40;;
44558;SDS011;30270;40.238;18.256;2022-12-07T16:31:07;12.32;;;10.07;;
44558;SDS011;30270;40.238;18.256;2022-12-07T16:33:37;29.42;;;14.68;;
44558;SDS011;30270;40.238;18.256;2022-12-07T16:36:06;34.13;;;20.52;;
44558;SDS011;30270;40.238;18.256;2022-12-07T16:38:35;24.77;;;17.75;;
44558;SDS011;30270;40.238;18.256;2022-12-07T16:41:04;24.60;;;15.88;;
44558;SDS011;30270;40.238;18.256;2022-12-07T16:43:33;25.80;;;17.45;;
44558;SDS011;30270;40.238;18.256;2022-12-07T16:46:01;25.02;;;13.68;;
44558;SDS011;30270;40.238;18.256;2022-12-07T16:48:30;22.35;;;13.73;;
44558;SDS011;30270;40.238;18.256;2022-12-07T16:50:58;19.25;;;12.65;;
44558;SDS011;30270;40.238;18.256;2022-12-07T16:53:31;18.38;;;11.68;;
44558;SDS011;30270;40.238;18.256;2022-12-07T16:55:59;14.20;;;9.32;;
44558;SDS011;30270;40.238;18.256;2022-12-07T16:58:26;13.52;;;8.65;;
44558;SDS011;30270;40.238;18.256;2022-12-07T17:00:54;14.68;;;6.70;;
44558;SDS011;30270;40.238;18.256;2022-12-07T17:03:22;11.00;;;6.80;;
44558;SDS011;30270;40.238;18.256;2022-12-07T17:05:49;18.60;;;7.25;;
44558;SDS011;30270;40.238;18.256;2022-12-07T17:08:17;12.43;;;5.82;;
44558;SDS011;30270;40.238;18.256;2022-12-07T17:10:45;11.43;;;6.03;;
44558;SDS011;30270;40.238;18.256;2022-12-07T17:13:12;20.23;;;9.15;;
44558;SDS011;30270;40.238;18.256;2022-12-07T17:16:00;19.50;;;13.70;;
44558;SDS011;30270;40.238;18.256;2022-12-07T17:18:31;21.88;;;13.77;;
44558;SDS011;30270;40.238;18.256;2022-12-07T17:21:05;20.20;;;10.05;;
44558;SDS011;30270;40.238;18.256;2022-12-07T17:23:34;23.05;;;12.77;;
44558;SDS011;30270;40.238;18.256;2022-12-07T17:26:04;31.15;;;13.75;;
44558;SDS011;30270;40.238;18.256;2022-12-07T17:31:07;25.90;;;14.50;;
44558;SDS011;30270;40.238;18.256;2022-12-07T17:33:36;18.58;;;12.57;;
44558;SDS011;30270;40.238;18.256;2022-12-07T17:36:11;22.08;;;15.70;;
44558;SDS011;30270;40.238;18.256;2022-12-07T17:38:50;23.65;;;17.63;;
44558;SDS011;30270;40.238;18.256;2022-12-07T17:41:20;28.02;;;16.70;;
44558;SDS011;30270;40.238;18.256;2022-12-07T17:44:08;26.30;;;18.08;;
44558;SDS011;30270;40.238;18.256;2022-12-07T17:46:38;30.23;;;21.67;;